sensor_id;sensor_type;location;lat;lon;timestamp;pressure;altitude;pressure_sealevel;temperature;humidity
18652;BME280;9455;54.302;10.124;2024-02-26T00:01:06;100355.22;;;2.69;100.00
18652;BME280;9455;54.302;10.124;2024-02-26T00:03:33;100354.81;;;2.75;100.00
18652;BME280;9455;54.302;10.124;2024-02-26T00:06:01;100352.56;;;2.69;100.00
18652;BME280;9455;54.302;10.124;2024-02-26T00:08:27;100356.44;;;2.63;100.00
18652;BME280;9455;54.302;10.124;2024-02-26T00:10:54;100360.75;;;2.50;100.00
18652;BME280;9455;54.302;10.124;2024-02-26T00:13:21;100354.50;;;2.37;100.00
18652;BME280;9455;54.302;10.124;2024-02-26T00:15:49;100357.25;;;2.50;100.00
18652;BME280;9455;54.302;10.124;2024-02-26T00:18:16;100355.38;;;2.38;100.00
18652;BME280;9455;54.302;10.124;2024-02-26T00:20:42;100359.88;;;2.50;100.00
18652;BME280;9455;54.302;10.124;2024-02-26T00:23:09;100358.56;;;2.43;100.00
18652;BME280;9455;54.302;10.124;2024-02-26T00:25:36;100361.78;;;2.48;100.00
18652;BME280;9455;54.302;10.124;2024-02-26T00:28:03;100352.44;;;2.42;100.00
18652;BME280;9455;54.302;10.124;2024-02-26T00:30:30;100358.75;;;2.54;100.00
18652;BME280;9455;54.302;10.124;2024-02-26T00:32:58;100356.50;;;2.48;100.00
18652;BME280;9455;54.302;10.124;2024-02-26T00:35:25;100360.22;;;2.30;100.00
18652;BME280;9455;54.302;10.124;2024-02-26T00:37:51;100364.19;;;2.51;100.00
18652;BME280;9455;54.302;10.124;2024-02-26T00:40:18;100364.56;;;2.31;100.00
18652;BME280;9455;54.302;10.124;2024-02-26T00:42:45;100364.72;;;2.14;100.00
18652;BME280;9455;54.302;10.124;2024-02-26T00:45:13;100362.81;;;2.16;100.00
18652;BME280;9455;54.302;10.124;2024-02-26T00:47:40;100373.22;;;2.47;100.00
18652;BME280;9455;54.302;10.124;2024-02-26T00:50:09;100370.34;;;2.22;100.00
18652;BME280;9455;54.302;10.124;2024-02-26T00:52:36;100376.03;;;2.00;100.00
18652;BME280;9455;54.302;10.124;2024-02-26T00:55:03;100373.78;;;1.94;100.00
18652;BME280;9455;54.302;10.124;2024-02-26T00:57:30;100374.41;;;1.98;100.00
18652;BME280;9455;54.302;10.124;2024-02-26T00:59:56;100379.25;;;2.05;100.00
18652;BME280;9455;54.302;10.124;2024-02-26T01:02:24;100390.06;;;2.15;100.00
18652;BME280;9455;54.302;10.124;2024-02-26T01:04:51;100392.25;;;2.22;100.00
18652;BME280;9455;54.302;10.124;2024-02-26T01:07:19;100389.34;;;2.27;100.00
18652;BME280;9455;54.302;10.124;2024-02-26T01:09:45;100384.03;;;2.13;100.00
18652;BME280;9455;54.302;10.124;2024-02-26T01:12:12;100388.34;;;2.29;100.00
18652;BME280;9455;54.302;10.124;2024-02-26T01:14:39;100395.69;;;2.09;100.00
18652;BME280;9455;54.302;10.124;2024-02-26T01:17:06;100387.09;;;1.91;100.00
18652;BME280;9455;54.302;10.124;2024-02-26T01:19:32;100394.53;;;1.83;100.00
18652;BME280;9455;54.302;10.124;2024-02-26T01:21:59;100399.59;;;2.02;100.00
18652;BME280;9455;54.302;10.124;2024-02-26T01:24:27;100395.63;;;1.95;100.00
18652;BME280;9455;54.302;10.124;2024-02-26T01:26:53;100398.81;;;1.86;100.00
18652;BME280;9455;54.302;10.124;2024-02-26T01:29:20;100396.91;;;1.88;100.00
18652;BME280;9455;54.302;10.124;2024-02-26T01:31:47;100391.81;;;1.85;100.00
18652;BME280;9455;54.302;10.124;2024-02-26T01:34:13;100396.28;;;1.69;100.00
18652;BME280;9455;54.302;10.124;2024-02-26T01:36:40;100389.31;;;1.68;100.00
18652;BME280;9455;54.302;10.124;2024-02-26T01:39:07;100396.13;;;1.72;100.00
18652;BME280;9455;54.302;10.124;2024-02-26T01:41:38;100391.03;;;1.69;100.00
18652;BME280;9455;54.302;10.124;2024-02-26T01:44:05;100394.56;;;1.68;100.00
18652;BME280;9455;54.302;10.124;2024-02-26T01:46:33;100400.19;;;1.62;100.00
18652;BME280;9455;54.302;10.124;2024-02-26T01:49:01;100394.41;;;1.71;100.00
18652;BME280;9455;54.302;10.124;2024-02-26T01:51:28;100394.06;;;1.77;100.00
18652;BME280;9455;54.302;10.124;2024-02-26T01:53:55;100398.28;;;1.79;100.00
18652;BME280;9455;54.302;10.124;2024-02-26T01:56:22;100388.09;;;1.89;100.00
18652;BME280;9455;54.302;10.124;2024-02-26T01:58:54;100399.16;;;1.80;100.00
18652;BME280;9455;54.302;10.124;2024-02-26T02:01:22;100401.78;;;1.80;100.00
18652;BME280;9455;54.302;10.124;2024-02-26T02:03:51;100400.16;;;1.93;100.00
18652;BME280;9455;54.302;10.124;2024-02-26T02:06:18;100406.09;;;1.65;100.00
18652;BME280;9455;54.302;10.124;2024-02-26T02:08:46;100400.34;;;1.74;100.00
18652;BME280;9455;54.302;10.124;2024-02-26T02:11:13;100408.13;;;1.76;100.00
18652;BME280;9455;54.302;10.124;2024-02-26T02:13:40;100409.31;;;1.86;100.00
18652;BME280;9455;54.302;10.124;2024-02-26T02:16:09;100405.41;;;1.93;100.00
18652;BME280;9455;54.302;10.124;2024-02-26T02:18:35;100406.91;;;1.97;100.00
18652;BME280;9455;54.302;10.124;2024-02-26T02:21:04;100403.34;;;1.98;100.00
18652;BME280;9455;54.302;10.124;2024-02-26T02:23:30;100406.47;;;1.89;100.00
18652;BME280;9455;54.302;10.124;2024-02-26T02:25:57;100412.19;;;1.81;100.00
18652;BME280;9455;54.302;10.124;2024-02-26T02:28:25;100407.25;;;1.91;100.00
18652;BME280;9455;54.302;10.124;2024-02-26T02:30:53;100404.88;;;1.86;100.00
18652;BME280;9455;54.302;10.124;2024-02-26T02:33:20;100411.50;;;1.93;100.00
18652;BME280;9455;54.302;10.124;2024-02-26T02:35:47;100413.47;;;1.90;100.00
18652;BME280;9455;54.302;10.124;2024-02-26T02:38:17;100411.31;;;1.96;100.00
18652;BME280;9455;54.302;10.124;2024-02-26T02:40:44;100413.47;;;1.90;100.00
18652;BME280;9455;54.302;10.124;2024-02-26T02:43:10;100417.19;;;1.86;100.00
18652;BME280;9455;54.302;10.124;2024-02-26T02:45:37;100416.50;;;1.82;100.00
18652;BME280;9455;54.302;10.124;2024-02-26T02:48:04;100423.75;;;1.79;100.00
18652;BME280;9455;54.302;10.124;2024-02-26T02:50:31;100426.00;;;1.69;100.00
18652;BME280;9455;54.302;10.124;2024-02-26T02:52:59;100426.78;;;1.71;100.00
18652;BME280;9455;54.302;10.124;2024-02-26T02:55:27;100427.66;;;1.72;100.00
18652;BME280;9455;54.302;10.124;2024-02-26T02:57:55;100431.03;;;1.74;100.00
18652;BME280;9455;54.302;10.124;2024-02-26T03:00:22;100433.41;;;1.78;100.00
18652;BME280;9455;54.302;10.124;2024-02-26T03:02:49;100422.09;;;1.76;100.00
18652;BME280;9455;54.302;10.124;2024-02-26T03:05:16;100430.50;;;1.83;100.00
18652;BME280;9455;54.302;10.124;2024-02-26T03:07:42;100436.09;;;1.77;100.00
18652;BME280;9455;54.302;10.124;2024-02-26T03:10:09;100429.84;;;1.64;100.00
18652;BME280;9455;54.302;10.124;2024-02-26T03:12:37;100434.06;;;1.66;100.00
18652;BME280;9455;54.302;10.124;2024-02-26T03:15:05;100437.47;;;1.68;100.00
18652;BME280;9455;54.302;10.124;2024-02-26T03:17:32;100432.53;;;1.62;100.00
18652;BME280;9455;54.302;10.124;2024-02-26T03:19:58;100435.34;;;1.59;100.00
18652;BME280;9455;54.302;10.124;2024-02-26T03:22:25;100437.31;;;1.71;100.00
18652;BME280;9455;54.302;10.124;2024-02-26T03:24:52;100440.50;;;1.61;100.00
18652;BME280;9455;54.302;10.124;2024-02-26T03:27:18;100438.66;;;1.63;100.00
18652;BME280;9455;54.302;10.124;2024-02-26T03:29:46;100448.47;;;1.75;100.00
18652;BME280;9455;54.302;10.124;2024-02-26T03:32:13;100452.22;;;1.55;100.00
18652;BME280;9455;54.302;10.124;2024-02-26T03:34:40;100445.59;;;1.64;100.00
18652;BME280;9455;54.302;10.124;2024-02-26T03:37:07;100449.66;;;1.85;100.00
18652;BME280;9455;54.302;10.124;2024-02-26T03:39:35;100442.88;;;1.50;100.00
18652;BME280;9455;54.302;10.124;2024-02-26T03:42:02;100445.28;;;1.70;100.00
18652;BME280;9455;54.302;10.124;2024-02-26T03:44:29;100444.41;;;1.54;100.00
18652;BME280;9455;54.302;10.124;2024-02-26T03:46:57;100454.91;;;1.38;100.00
18652;BME280;9455;54.302;10.124;2024-02-26T03:49:23;100453.38;;;1.34;100.00
18652;BME280;9455;54.302;10.124;2024-02-26T03:51:50;100454.66;;;1.43;100.00
18652;BME280;9455;54.302;10.124;2024-02-26T03:54:17;100457.28;;;1.43;100.00
18652;BME280;9455;54.302;10.124;2024-02-26T03:56:43;100469.66;;;1.25;100.00
18652;BME280;9455;54.302;10.124;2024-02-26T03:59:10;100474.94;;;1.41;100.00
18652;BME280;9455;54.302;10.124;2024-02-26T04:01:36;100470.88;;;1.35;100.00
18652;BME280;9455;54.302;10.124;2024-02-26T04:04:05;100479.84;;;1.47;100.00
18652;BME280;9455;54.302;10.124;2024-02-26T04:06:32;100485.44;;;1.41;100.00
18652;BME280;9455;54.302;10.124;2024-02-26T04:08:59;100486.00;;;1.30;100.00
18652;BME280;9455;54.302;10.124;2024-02-26T04:11:26;100476.94;;;1.36;100.00
18652;BME280;9455;54.302;10.124;2024-02-26T04:13:52;100490.34;;;1.47;100.00
18652;BME280;9455;54.302;10.124;2024-02-26T04:16:19;100494.53;;;1.51;100.00
18652;BME280;9455;54.302;10.124;2024-02-26T04:18:46;100498.38;;;1.44;100.00
18652;BME280;9455;54.302;10.124;2024-02-26T04:21:14;100494.56;;;1.34;100.00
18652;BME280;9455;54.302;10.124;2024-02-26T04:23:40;100495.31;;;1.36;100.00
18652;BME280;9455;54.302;10.124;2024-02-26T04:26:07;100500.34;;;1.40;100.00
18652;BME280;9455;54.302;10.124;2024-02-26T04:28:34;100500.16;;;1.28;100.00
18652;BME280;9455;54.302;10.124;2024-02-26T04:31:01;100504.84;;;1.54;100.00
18652;BME280;9455;54.302;10.124;2024-02-26T04:33:27;100517.13;;;1.38;100.00
18652;BME280;9455;54.302;10.124;2024-02-26T04:35:54;100513.41;;;1.42;100.00
18652;BME280;9455;54.302;10.124;2024-02-26T04:38:22;100508.56;;;1.50;100.00
18652;BME280;9455;54.302;10.124;2024-02-26T04:40:49;100510.88;;;1.56;100.00
18652;BME280;9455;54.302;10.124;2024-02-26T04:43:16;100518.69;;;1.57;100.00
18652;BME280;9455;54.302;10.124;2024-02-26T04:45:43;100520.97;;;1.63;100.00
18652;BME280;9455;54.302;10.124;2024-02-26T04:48:10;100532.25;;;1.65;100.00
18652;BME280;9455;54.302;10.124;2024-02-26T04:50:36;100531.91;;;1.56;100.00
18652;BME280;9455;54.302;10.124;2024-02-26T04:53:03;100531.91;;;1.56;100.00
18652;BME280;9455;54.302;10.124;2024-02-26T04:55:31;100541.03;;;1.49;100.00
18652;BME280;9455;54.302;10.124;2024-02-26T04:57:58;100551.38;;;1.52;100.00
18652;BME280;9455;54.302;10.124;2024-02-26T05:00:25;100546.81;;;1.71;100.00
18652;BME280;9455;54.302;10.124;2024-02-26T05:02:51;100559.22;;;1.69;100.00
18652;BME280;9455;54.302;10.124;2024-02-26T05:05:18;100553.41;;;1.62;100.00
18652;BME280;9455;54.302;10.124;2024-02-26T05:07:45;100558.66;;;1.47;100.00
18652;BME280;9455;54.302;10.124;2024-02-26T05:10:11;100557.56;;;1.51;100.00
18652;BME280;9455;54.302;10.124;2024-02-26T05:12:39;100563.75;;;1.50;100.00
18652;BME280;9455;54.302;10.124;2024-02-26T05:15:08;100563.69;;;1.34;100.00
18652;BME280;9455;54.302;10.124;2024-02-26T05:17:35;100561.84;;;1.36;100.00
18652;BME280;9455;54.302;10.124;2024-02-26T05:20:02;100577.78;;;1.33;100.00
18652;BME280;9455;54.302;10.124;2024-02-26T05:22:29;100579.25;;;1.22;100.00
18652;BME280;9455;54.302;10.124;2024-02-26T05:24:56;100580.03;;;1.07;100.00
18652;BME280;9455;54.302;10.124;2024-02-26T05:27:22;100574.50;;;1.13;100.00
18652;BME280;9455;54.302;10.124;2024-02-26T05:29:51;100582.81;;;1.04;100.00
18652;BME280;9455;54.302;10.124;2024-02-26T05:32:19;100579.50;;;1.00;100.00
18652;BME280;9455;54.302;10.124;2024-02-26T05:34:46;100574.94;;;1.04;100.00
18652;BME280;9455;54.302;10.124;2024-02-26T05:37:13;100578.97;;;0.94;100.00
18652;BME280;9455;54.302;10.124;2024-02-26T05:39:39;100583.28;;;1.12;100.00
18652;BME280;9455;54.302;10.124;2024-02-26T05:42:06;100581.28;;;1.17;100.00
18652;BME280;9455;54.302;10.124;2024-02-26T05:44:34;100586.75;;;1.12;100.00
18652;BME280;9455;54.302;10.124;2024-02-26T05:47:02;100586.19;;;1.23;100.00
18652;BME280;9455;54.302;10.124;2024-02-26T05:49:29;100584.13;;;1.12;100.00
18652;BME280;9455;54.302;10.124;2024-02-26T05:51:56;100588.38;;;0.98;100.00
18652;BME280;9455;54.302;10.124;2024-02-26T05:54:23;100594.84;;;0.91;100.00
18652;BME280;9455;54.302;10.124;2024-02-26T05:56:50;100602.81;;;0.89;100.00
18652;BME280;9455;54.302;10.124;2024-02-26T05:59:17;100605.66;;;1.02;100.00
18652;BME280;9455;54.302;10.124;2024-02-26T06:01:43;100606.53;;;1.02;100.00
18652;BME280;9455;54.302;10.124;2024-02-26T06:04:11;100615.09;;;0.89;100.00
18652;BME280;9455;54.302;10.124;2024-02-26T06:06:38;100621.09;;;0.91;100.00
18652;BME280;9455;54.302;10.124;2024-02-26T06:09:05;100622.78;;;0.92;100.00
18652;BME280;9455;54.302;10.124;2024-02-26T06:11:32;100626.66;;;1.02;100.00
18652;BME280;9455;54.302;10.124;2024-02-26T06:13:59;100623.59;;;1.11;100.00
18652;BME280;9455;54.302;10.124;2024-02-26T06:16:25;100623.97;;;1.20;100.00
18652;BME280;9455;54.302;10.124;2024-02-26T06:18:53;100632.56;;;1.24;100.00
18652;BME280;9455;54.302;10.124;2024-02-26T06:21:21;100633.63;;;1.03;100.00
18652;BME280;9455;54.302;10.124;2024-02-26T06:23:47;100628.06;;;1.26;100.00
18652;BME280;9455;54.302;10.124;2024-02-26T06:26:14;100634.41;;;1.22;100.00
18652;BME280;9455;54.302;10.124;2024-02-26T06:28:41;100639.63;;;1.05;100.00
18652;BME280;9455;54.302;10.124;2024-02-26T06:31:08;100637.81;;;1.07;100.00
18652;BME280;9455;54.302;10.124;2024-02-26T06:33:34;100645.13;;;1.17;100.00
18652;BME280;9455;54.302;10.124;2024-02-26T06:36:01;100650.00;;;1.08;100.00
18652;BME280;9455;54.302;10.124;2024-02-26T06:38:29;100653.72;;;1.21;100.00
18652;BME280;9455;54.302;10.124;2024-02-26T06:40:56;100653.06;;;1.16;100.00
18652;BME280;9455;54.302;10.124;2024-02-26T06:43:23;100662.13;;;1.10;100.00
18652;BME280;9455;54.302;10.124;2024-02-26T06:45:50;100667.78;;;1.20;100.00
18652;BME280;9455;54.302;10.124;2024-02-26T06:48:16;100664.81;;;1.26;100.00
18652;BME280;9455;54.302;10.124;2024-02-26T06:50:43;100661.03;;;1.14;100.00
18652;BME280;9455;54.302;10.124;2024-02-26T06:53:10;100659.13;;;1.35;100.00
18652;BME280;9455;54.302;10.124;2024-02-26T06:55:46;100664.81;;;1.43;100.00
18652;BME280;9455;54.302;10.124;2024-02-26T06:58:17;100678.44;;;1.51;100.00
18652;BME280;9455;54.302;10.124;2024-02-26T07:00:43;100685.47;;;1.50;100.00
18652;BME280;9455;54.302;10.124;2024-02-26T07:03:10;100681.19;;;1.65;100.00
18652;BME280;9455;54.302;10.124;2024-02-26T07:05:36;100690.63;;;1.69;100.00
18652;BME280;9455;54.302;10.124;2024-02-26T07:08:04;100693.69;;;1.77;100.00
18652;BME280;9455;54.302;10.124;2024-02-26T07:10:30;100692.31;;;1.70;100.00
18652;BME280;9455;54.302;10.124;2024-02-26T07:12:58;100700.16;;;1.87;100.00
18652;BME280;9455;54.302;10.124;2024-02-26T07:15:25;100702.34;;;1.96;100.00
18652;BME280;9455;54.302;10.124;2024-02-26T07:17:51;100705.97;;;2.09;100.00
18652;BME280;9455;54.302;10.124;2024-02-26T07:20:18;100716.78;;;2.20;100.00
18652;BME280;9455;54.302;10.124;2024-02-26T07:22:45;100709.81;;;2.19;100.00
18652;BME280;9455;54.302;10.124;2024-02-26T07:25:11;100714.50;;;2.14;100.00
18652;BME280;9455;54.302;10.124;2024-02-26T07:27:38;100709.69;;;2.37;100.00
18652;BME280;9455;54.302;10.124;2024-02-26T07:30:08;100721.50;;;2.46;100.00
18652;BME280;9455;54.302;10.124;2024-02-26T07:32:35;100722.59;;;2.42;100.00
18652;BME280;9455;54.302;10.124;2024-02-26T07:35:02;100727.88;;;2.42;100.00
18652;BME280;9455;54.302;10.124;2024-02-26T07:37:28;100725.06;;;2.45;100.00
18652;BME280;9455;54.302;10.124;2024-02-26T07:39:55;100735.44;;;2.63;100.00
18652;BME280;9455;54.302;10.124;2024-02-26T07:42:22;100737.06;;;2.66;100.00
18652;BME280;9455;54.302;10.124;2024-02-26T07:44:48;100734.34;;;2.83;100.00
18652;BME280;9455;54.302;10.124;2024-02-26T07:47:16;100735.34;;;2.65;100.00
18652;BME280;9455;54.302;10.124;2024-02-26T07:49:43;100739.94;;;2.77;100.00
18652;BME280;9455;54.302;10.124;2024-02-26T07:52:08;100736.13;;;2.67;100.00
18652;BME280;9455;54.302;10.124;2024-02-26T07:54:35;100742.75;;;2.74;100.00
18652;BME280;9455;54.302;10.124;2024-02-26T07:57:01;100746.16;;;2.76;100.00
18652;BME280;9455;54.302;10.124;2024-02-26T07:59:30;100758.94;;;2.66;100.00
18652;BME280;9455;54.302;10.124;2024-02-26T08:01:57;100763.81;;;3.05;100.00
18652;BME280;9455;54.302;10.124;2024-02-26T08:04:25;100773.94;;;2.97;100.00
18652;BME280;9455;54.302;10.124;2024-02-26T08:06:52;100775.03;;;2.77;100.00
18652;BME280;9455;54.302;10.124;2024-02-26T08:09:18;100778.72;;;2.58;100.00
18652;BME280;9455;54.302;10.124;2024-02-26T08:11:45;100783.06;;;2.59;100.00
18652;BME280;9455;54.302;10.124;2024-02-26T08:14:12;100787.16;;;2.32;100.00
18652;BME280;9455;54.302;10.124;2024-02-26T08:16:39;100791.25;;;2.37;100.00
18652;BME280;9455;54.302;10.124;2024-02-26T08:19:05;100800.91;;;2.37;100.00
18652;BME280;9455;54.302;10.124;2024-02-26T08:21:33;100801.69;;;2.39;100.00
18652;BME280;9455;54.302;10.124;2024-02-26T08:24:02;100805.88;;;2.43;100.00
18652;BME280;9455;54.302;10.124;2024-02-26T08:26:28;100806.84;;;2.57;100.00
18652;BME280;9455;54.302;10.124;2024-02-26T08:28:55;100803.59;;;2.52;100.00
18652;BME280;9455;54.302;10.124;2024-02-26T08:31:22;100807.66;;;2.58;100.00
18652;BME280;9455;54.302;10.124;2024-02-26T08:33:49;100806.91;;;2.56;100.00
18652;BME280;9455;54.302;10.124;2024-02-26T08:36:16;100808.72;;;2.71;100.00
18652;BME280;9455;54.302;10.124;2024-02-26T08:38:44;100806.72;;;2.76;100.00
18652;BME280;9455;54.302;10.124;2024-02-26T08:41:10;100806.97;;;2.87;100.00
18652;BME280;9455;54.302;10.124;2024-02-26T08:43:38;100809.34;;;2.92;100.00
18652;BME280;9455;54.302;10.124;2024-02-26T08:46:08;100813.59;;;2.94;100.00
18652;BME280;9455;54.302;10.124;2024-02-26T08:48:35;100813.84;;;3.05;100.00
18652;BME280;9455;54.302;10.124;2024-02-26T08:51:05;100820.72;;;3.23;100.00
18652;BME280;9455;54.302;10.124;2024-02-26T08:53:31;100813.94;;;3.19;100.00
18652;BME280;9455;54.302;10.124;2024-02-26T08:55:59;100810.72;;;3.30;100.00
18652;BME280;9455;54.302;10.124;2024-02-26T08:58:27;100820.28;;;3.46;100.00
18652;BME280;9455;54.302;10.124;2024-02-26T09:00:53;100829.72;;;3.50;100.00
18652;BME280;9455;54.302;10.124;2024-02-26T09:03:20;100831.41;;;3.51;100.00
18652;BME280;9455;54.302;10.124;2024-02-26T09:05:46;100835.31;;;3.60;100.00
18652;BME280;9455;54.302;10.124;2024-02-26T09:08:13;100831.56;;;3.48;100.00
18652;BME280;9455;54.302;10.124;2024-02-26T09:10:40;100822.25;;;3.72;100.00
18652;BME280;9455;54.302;10.124;2024-02-26T09:13:08;100829.84;;;3.78;100.00
18652;BME280;9455;54.302;10.124;2024-02-26T09:15:34;100837.69;;;3.64;100.00
18652;BME280;9455;54.302;10.124;2024-02-26T09:18:01;100834.06;;;3.81;100.00
18652;BME280;9455;54.302;10.124;2024-02-26T09:20:28;100835.44;;;3.72;100.00
18652;BME280;9455;54.302;10.124;2024-02-26T09:22:54;100835.47;;;3.57;100.00
18652;BME280;9455;54.302;10.124;2024-02-26T09:25:21;100837.97;;;3.89;100.00
18652;BME280;9455;54.302;10.124;2024-02-26T09:27:48;100837.31;;;3.86;100.00
18652;BME280;9455;54.302;10.124;2024-02-26T09:30:16;100835.97;;;4.08;100.00
18652;BME280;9455;54.302;10.124;2024-02-26T09:32:46;100836.31;;;4.02;100.00
18652;BME280;9455;54.302;10.124;2024-02-26T09:35:12;100843.47;;;3.55;100.00
18652;BME280;9455;54.302;10.124;2024-02-26T09:37:39;100837.78;;;3.63;100.00
18652;BME280;9455;54.302;10.124;2024-02-26T09:40:07;100847.13;;;3.68;100.00
18652;BME280;9455;54.302;10.124;2024-02-26T09:42:35;100852.66;;;3.64;100.00
18652;BME280;9455;54.302;10.124;2024-02-26T09:45:05;100847.59;;;3.90;100.00
18652;BME280;9455;54.302;10.124;2024-02-26T09:47:36;100857.53;;;3.85;100.00
18652;BME280;9455;54.302;10.124;2024-02-26T09:50:05;100859.94;;;3.90;100.00
18652;BME280;9455;54.302;10.124;2024-02-26T09:52:34;100862.38;;;3.93;100.00
18652;BME280;9455;54.302;10.124;2024-02-26T09:55:04;100865.50;;;3.99;100.00
18652;BME280;9455;54.302;10.124;2024-02-26T09:57:31;100863.94;;;4.11;100.00
18652;BME280;9455;54.302;10.124;2024-02-26T09:59:59;100865.59;;;4.27;100.00
18652;BME280;9455;54.302;10.124;2024-02-26T10:02:33;100864.81;;;4.11;100.00
18652;BME280;9455;54.302;10.124;2024-02-26T10:05:02;100868.44;;;3.79;100.00
18652;BME280;9455;54.302;10.124;2024-02-26T10:07:30;100873.06;;;3.76;100.00
18652;BME280;9455;54.302;10.124;2024-02-26T10:09:58;100875.72;;;4.05;100.00
18652;BME280;9455;54.302;10.124;2024-02-26T10:12:26;100882.91;;;4.17;100.00
18652;BME280;9455;54.302;10.124;2024-02-26T10:14:53;100880.81;;;4.08;100.00
18652;BME280;9455;54.302;10.124;2024-02-26T10:17:20;100887.72;;;4.25;100.00
18652;BME280;9455;54.302;10.124;2024-02-26T10:19:47;100889.97;;;4.17;100.00
18652;BME280;9455;54.302;10.124;2024-02-26T10:22:14;100888.00;;;4.20;100.00
18652;BME280;9455;54.302;10.124;2024-02-26T10:24:41;100900.09;;;4.38;100.00
18652;BME280;9455;54.302;10.124;2024-02-26T10:27:08;100897.47;;;4.38;100.00
18652;BME280;9455;54.302;10.124;2024-02-26T10:29:35;100901.28;;;4.62;100.00
18652;BME280;9455;54.302;10.124;2024-02-26T10:32:01;100909.19;;;4.48;100.00
18652;BME280;9455;54.302;10.124;2024-02-26T10:34:28;100908.47;;;4.60;100.00
18652;BME280;9455;54.302;10.124;2024-02-26T10:36:54;100902.22;;;4.61;100.00
18652;BME280;9455;54.302;10.124;2024-02-26T10:39:22;100911.00;;;4.48;100.00
18652;BME280;9455;54.302;10.124;2024-02-26T10:41:49;100912.06;;;4.73;100.00
18652;BME280;9455;54.302;10.124;2024-02-26T10:44:16;100922.72;;;4.58;100.00
18652;BME280;9455;54.302;10.124;2024-02-26T10:46:43;100926.94;;;4.60;100.00
18652;BME280;9455;54.302;10.124;2024-02-26T10:49:14;100929.56;;;4.46;100.00
18652;BME280;9455;54.302;10.124;2024-02-26T10:51:44;100938.22;;;4.48;100.00
18652;BME280;9455;54.302;10.124;2024-02-26T10:54:12;100937.88;;;4.54;100.00
18652;BME280;9455;54.302;10.124;2024-02-26T10:56:43;100934.38;;;4.68;100.00
18652;BME280;9455;54.302;10.124;2024-02-26T10:59:11;100930.66;;;4.72;100.00
18652;BME280;9455;54.302;10.124;2024-02-26T11:01:39;100923.38;;;4.75;100.00
18652;BME280;9455;54.302;10.124;2024-02-26T11:04:08;100917.16;;;4.76;100.00
18652;BME280;9455;54.302;10.124;2024-02-26T11:06:35;100923.56;;;4.86;100.00
18652;BME280;9455;54.302;10.124;2024-02-26T11:09:02;100932.44;;;4.85;100.00
18652;BME280;9455;54.302;10.124;2024-02-26T11:11:30;100929.91;;;4.98;100.00
18652;BME280;9455;54.302;10.124;2024-02-26T11:14:01;100929.25;;;4.80;100.00
18652;BME280;9455;54.302;10.124;2024-02-26T11:16:30;100929.63;;;4.74;100.00
18652;BME280;9455;54.302;10.124;2024-02-26T11:18:57;100925.38;;;4.72;100.00
18652;BME280;9455;54.302;10.124;2024-02-26T11:21:24;100930.56;;;4.87;100.00
18652;BME280;9455;54.302;10.124;2024-02-26T11:23:56;100925.56;;;4.97;100.00
18652;BME280;9455;54.302;10.124;2024-02-26T11:26:23;100926.63;;;4.94;100.00
18652;BME280;9455;54.302;10.124;2024-02-26T11:28:52;100928.84;;;4.86;100.00
18652;BME280;9455;54.302;10.124;2024-02-26T11:31:24;100932.47;;;5.13;100.00
18652;BME280;9455;54.302;10.124;2024-02-26T11:33:53;100935.09;;;5.27;100.00
18652;BME280;9455;54.302;10.124;2024-02-26T11:36:20;100933.47;;;5.39;100.00
18652;BME280;9455;54.302;10.124;2024-02-26T11:38:47;100937.00;;;5.11;100.00
18652;BME280;9455;54.302;10.124;2024-02-26T11:41:17;100936.50;;;5.33;100.00
18652;BME280;9455;54.302;10.124;2024-02-26T11:43:50;100940.78;;;5.35;100.00
18652;BME280;9455;54.302;10.124;2024-02-26T11:46:26;100941.56;;;5.50;100.00
18652;BME280;9455;54.302;10.124;2024-02-26T11:48:55;100935.28;;;5.24;100.00
18652;BME280;9455;54.302;10.124;2024-02-26T11:51:25;100938.38;;;5.45;100.00
18652;BME280;9455;54.302;10.124;2024-02-26T11:53:52;100938.09;;;5.49;100.00
18652;BME280;9455;54.302;10.124;2024-02-26T11:56:22;100937.75;;;5.68;100.00
18652;BME280;9455;54.302;10.124;2024-02-26T11:58:56;100952.41;;;5.88;100.00
18652;BME280;9455;54.302;10.124;2024-02-26T12:01:38;100945.50;;;6.12;100.00
18652;BME280;9455;54.302;10.124;2024-02-26T12:04:06;100938.31;;;5.87;100.00
18652;BME280;9455;54.302;10.124;2024-02-26T12:06:41;100945.78;;;6.34;100.00
18652;BME280;9455;54.302;10.124;2024-02-26T12:09:08;100942.13;;;6.49;100.00
18652;BME280;9455;54.302;10.124;2024-02-26T12:11:37;100944.84;;;6.47;100.00
18652;BME280;9455;54.302;10.124;2024-02-26T12:14:06;100945.59;;;6.37;100.00
18652;BME280;9455;54.302;10.124;2024-02-26T12:16:38;100944.13;;;6.45;100.00
18652;BME280;9455;54.302;10.124;2024-02-26T12:19:06;100954.97;;;6.67;100.00
18652;BME280;9455;54.302;10.124;2024-02-26T12:21:34;100960.50;;;6.77;100.00
18652;BME280;9455;54.302;10.124;2024-02-26T12:24:11;100958.59;;;6.79;100.00
18652;BME280;9455;54.302;10.124;2024-02-26T12:26:39;100955.19;;;6.77;100.00
18652;BME280;9455;54.302;10.124;2024-02-26T12:29:05;100958.97;;;6.48;100.00
18652;BME280;9455;54.302;10.124;2024-02-26T12:31:32;100956.38;;;6.34;100.00
18652;BME280;9455;54.302;10.124;2024-02-26T12:34:00;100958.06;;;6.35;100.00
18652;BME280;9455;54.302;10.124;2024-02-26T12:36:27;100958.31;;;6.44;100.00
18652;BME280;9455;54.302;10.124;2024-02-26T12:38:54;100967.22;;;6.56;100.00
18652;BME280;9455;54.302;10.124;2024-02-26T12:41:21;100965.91;;;6.36;100.00
18652;BME280;9455;54.302;10.124;2024-02-26T12:43:48;100967.53;;;6.12;100.00
18652;BME280;9455;54.302;10.124;2024-02-26T12:46:15;100971.53;;;6.05;100.00
18652;BME280;9455;54.302;10.124;2024-02-26T12:48:43;100970.19;;;6.12;100.00
18652;BME280;9455;54.302;10.124;2024-02-26T12:51:12;100976.38;;;5.99;100.00